Time;durP1;ratioP1;P1;durP2;ratioP2;P2;SDS_P1;SDS_P2;PMS_P1;PMS_P2;Temp;Humidity;BMP_temperature;BMP_pressure;BME280_temperature;BME280_humidity;BME280_pressure;Samples;Min_cycle;Max_cycle;Signal;HPM_P1;HPM_P2
2021/06/12 00:02:07;;;;;;;30.83;15.05;;;;;;;;;;4961774;28;20074;-61
2021/06/12 00:04:32;;;;;;;37.05;15.00;;;;;;;;;;4948755;28;20030;-61
2021/06/12 00:07:00;;;;;;;29.15;13.13;;;;;;;;;;4947539;28;20038;-62
2021/06/12 00:09:26;;;;;;;30.08;13.32;;;;;;;;;;4949200;28;20066;-62
2021/06/12 00:11:52;;;;;;;34.05;14.35;;;;;;;;;;4948035;28;22064;-61
2021/06/12 00:14:18;;;;;;;36.75;16.48;;;;;;;;;;4949416;28;20125;-61
2021/06/12 00:16:43;;;;;;;29.30;14.63;;;;;;;;;;4962297;28;20065;-61
2021/06/12 00:19:09;;;;;;;30.58;14.00;;;;;;;;;;4961824;28;20042;-63
2021/06/12 00:21:40;;;;;;;32.15;15.52;;;;;;;;;;4946441;28;20147;-61
2021/06/12 00:24:06;;;;;;;35.28;14.88;;;;;;;;;;4960727;28;20110;-61
2021/06/12 00:26:34;;;;;;;37.50;14.93;;;;;;;;;;4944941;28;20038;-60
2021/06/12 00:29:00;;;;;;;31.50;15.52;;;;;;;;;;4945430;28;20125;-61
2021/06/12 00:31:28;;;;;;;27.63;14.88;;;;;;;;;;4930561;28;20035;-60
2021/06/12 00:33:53;;;;;;;27.40;14.75;;;;;;;;;;4963024;28;22011;-60
2021/06/12 00:36:23;;;;;;;29.13;14.15;;;;;;;;;;4947170;28;20043;-61
2021/06/12 00:38:50;;;;;;;32.42;15.38;;;;;;;;;;4947521;28;20065;-62
2021/06/12 00:41:19;;;;;;;33.72;16.05;;;;;;;;;;4946448;28;20038;-60
2021/06/12 00:43:47;;;;;;;33.25;16.52;;;;;;;;;;4962589;28;20153;-60
2021/06/12 00:46:15;;;;;;;32.08;14.93;;;;;;;;;;4946694;28;20062;-60
2021/06/12 00:48:44;;;;;;;32.38;13.98;;;;;;;;;;4925305;28;20113;-61
2021/06/12 00:51:12;;;;;;;28.35;14.43;;;;;;;;;;4962585;28;22181;-61
2021/06/12 00:53:40;;;;;;;27.00;14.60;;;;;;;;;;4946566;28;20161;-60
2021/06/12 00:56:10;;;;;;;31.10;13.95;;;;;;;;;;4945764;28;20589;-62
2021/06/12 00:58:42;;;;;;;30.50;15.25;;;;;;;;;;4952333;28;20054;-60
2021/06/12 01:01:09;;;;;;;28.80;13.98;;;;;;;;;;4945411;28;21188;-61
2021/06/12 01:03:40;;;;;;;27.77;13.18;;;;;;;;;;4949157;28;20671;-61
2021/06/12 01:06:09;;;;;;;30.25;15.02;;;;;;;;;;4950888;28;20050;-61
2021/06/12 01:08:36;;;;;;;32.45;14.15;;;;;;;;;;4950712;28;20031;-61
2021/06/12 01:11:05;;;;;;;28.00;14.10;;;;;;;;;;4964996;28;20062;-61
2021/06/12 01:13:36;;;;;;;28.13;13.55;;;;;;;;;;4948482;28;20073;-60
2021/06/12 01:16:23;;;;;;;27.20;14.57;;;;;;;;;;4965233;28;20160;-61
2021/06/12 01:18:52;;;;;;;32.03;15.50;;;;;;;;;;4963258;28;20031;-60
2021/06/12 01:21:31;;;;;;;29.63;14.65;;;;;;;;;;4948307;28;20423;-61
2021/06/12 01:24:02;;;;;;;27.73;13.27;;;;;;;;;;4964181;28;20711;-61
2021/06/12 01:26:46;;;;;;;34.97;14.90;;;;;;;;;;4949346;28;20038;-60
2021/06/12 01:29:20;;;;;;;31.30;14.48;;;;;;;;;;4950219;28;20043;-62
2021/06/12 01:31:49;;;;;;;29.42;14.10;;;;;;;;;;4928261;28;20035;-61
2021/06/12 01:34:19;;;;;;;27.17;13.00;;;;;;;;;;4950180;28;20043;-61
2021/06/12 01:36:52;;;;;;;28.73;13.95;;;;;;;;;;4948275;28;20165;-62
2021/06/12 01:39:23;;;;;;;25.80;13.00;;;;;;;;;;4948558;28;20031;-61
2021/06/12 01:41:49;;;;;;;29.20;13.75;;;;;;;;;;4963295;28;20034;-62
2021/06/12 01:44:18;;;;;;;28.20;14.60;;;;;;;;;;4946785;28;20368;-61
2021/06/12 01:46:49;;;;;;;31.83;14.50;;;;;;;;;;4946568;28;20034;-60
2021/06/12 01:49:17;;;;;;;33.35;15.23;;;;;;;;;;4948628;28;20162;-61
2021/06/12 01:51:49;;;;;;;29.58;14.70;;;;;;;;;;4964353;28;20062;-62
2021/06/12 01:54:15;;;;;;;26.35;13.25;;;;;;;;;;4948606;28;20035;-61
2021/06/12 01:56:46;;;;;;;31.25;13.90;;;;;;;;;;4948086;28;20038;-61
2021/06/12 01:59:16;;;;;;;34.78;15.45;;;;;;;;;;4948673;28;20606;-61
2021/06/12 02:01:48;;;;;;;35.33;14.98;;;;;;;;;;4962119;28;20061;-61
2021/06/12 02:04:17;;;;;;;29.60;14.70;;;;;;;;;;4932888;28;20034;-62
2021/06/12 02:06:44;;;;;;;27.63;13.85;;;;;;;;;;4947823;28;20387;-62
2021/06/12 02:09:12;;;;;;;30.40;15.23;;;;;;;;;;4947107;28;20030;-62
2021/06/12 02:11:38;;;;;;;32.45;15.32;;;;;;;;;;4947132;28;20038;-62
2021/06/12 02:14:07;;;;;;;33.53;16.35;;;;;;;;;;4963430;28;21469;-62
2021/06/12 02:16:32;;;;;;;33.17;15.48;;;;;;;;;;4948149;28;20042;-62
2021/06/12 02:19:00;;;;;;;32.53;16.00;;;;;;;;;;4951237;28;20588;-61
2021/06/12 02:21:28;;;;;;;29.60;14.10;;;;;;;;;;4933053;28;20027;-61
2021/06/12 02:23:55;;;;;;;31.55;14.07;;;;;;;;;;4949144;28;20055;-61
2021/06/12 02:26:23;;;;;;;29.15;14.85;;;;;;;;;;4950411;28;20121;-61
2021/06/12 02:28:52;;;;;;;31.25;14.27;;;;;;;;;;4947307;28;20035;-61
2021/06/12 02:31:21;;;;;;;29.02;14.48;;;;;;;;;;4948609;28;21126;-61
2021/06/12 02:33:52;;;;;;;29.45;16.05;;;;;;;;;;4946654;28;20584;-61
2021/06/12 02:36:22;;;;;;;32.38;14.85;;;;;;;;;;4949104;28;20043;-62
2021/06/12 02:38:48;;;;;;;33.72;16.90;;;;;;;;;;4945891;28;20157;-61
2021/06/12 02:41:16;;;;;;;31.52;15.27;;;;;;;;;;4964176;28;20027;-61
2021/06/12 02:43:46;;;;;;;40.60;17.15;;;;;;;;;;4947372;28;20417;-62
2021/06/12 02:46:13;;;;;;;34.90;16.30;;;;;;;;;;4963846;28;20053;-61
2021/06/12 02:48:40;;;;;;;37.20;15.85;;;;;;;;;;4963865;28;20042;-61
2021/06/12 02:51:06;;;;;;;35.95;14.65;;;;;;;;;;4952018;28;20058;-61
2021/06/12 02:53:37;;;;;;;34.00;15.30;;;;;;;;;;4962127;28;20046;-61
2021/06/12 02:56:04;;;;;;;31.33;15.18;;;;;;;;;;4948850;28;20141;-61
2021/06/12 02:58:30;;;;;;;32.67;15.70;;;;;;;;;;4963041;28;20193;-61
2021/06/12 03:00:56;;;;;;;36.35;16.40;;;;;;;;;;4949878;28;20031;-61
2021/06/12 03:03:22;;;;;;;31.67;15.40;;;;;;;;;;4946978;28;20027;-61
2021/06/12 03:05:53;;;;;;;34.47;16.20;;;;;;;;;;4964071;28;21059;-62
2021/06/12 03:08:21;;;;;;;35.33;16.00;;;;;;;;;;4927878;28;20049;-61
2021/06/12 03:10:53;;;;;;;37.65;16.27;;;;;;;;;;4950343;28;20101;-61
2021/06/12 03:13:26;;;;;;;31.58;15.65;;;;;;;;;;4945895;28;20043;-61
2021/06/12 03:15:52;;;;;;;36.63;16.08;;;;;;;;;;4947849;28;20206;-60
2021/06/12 03:18:21;;;;;;;33.58;17.10;;;;;;;;;;4948281;28;20039;-61
2021/06/12 03:20:47;;;;;;;32.92;15.90;;;;;;;;;;4949405;28;20070;-62
2021/06/12 03:23:13;;;;;;;37.08;16.95;;;;;;;;;;4948293;28;20458;-62
2021/06/12 03:25:39;;;;;;;33.67;16.52;;;;;;;;;;4948814;28;20485;-61
2021/06/12 03:28:06;;;;;;;35.78;17.10;;;;;;;;;;4947392;28;20039;-60
2021/06/12 03:30:34;;;;;;;40.35;18.33;;;;;;;;;;4947104;28;20047;-62
2021/06/12 03:33:04;;;;;;;36.22;17.45;;;;;;;;;;4930162;28;20117;-61
2021/06/12 03:35:32;;;;;;;34.67;15.32;;;;;;;;;;4946788;28;20134;-61
2021/06/12 03:37:59;;;;;;;36.05;17.52;;;;;;;;;;4947612;28;20030;-61
2021/06/12 03:40:30;;;;;;;29.27;15.10;;;;;;;;;;4962072;28;20045;-59
2021/06/12 03:42:56;;;;;;;32.42;15.68;;;;;;;;;;4963447;28;20410;-61
2021/06/12 03:45:25;;;;;;;33.80;16.02;;;;;;;;;;4947906;28;20035;-60
2021/06/12 03:47:53;;;;;;;31.83;15.02;;;;;;;;;;4945834;28;20035;-60
2021/06/12 03:50:26;;;;;;;31.67;14.82;;;;;;;;;;4928675;28;20050;-59
2021/06/12 03:52:51;;;;;;;31.58;13.75;;;;;;;;;;4948770;28;20034;-62
2021/06/12 03:55:17;;;;;;;30.30;13.95;;;;;;;;;;4960244;28;20053;-60
2021/06/12 03:57:43;;;;;;;29.67;13.63;;;;;;;;;;4946710;28;20237;-60
2021/06/12 04:00:11;;;;;;;32.22;14.27;;;;;;;;;;4962815;28;20566;-61
2021/06/12 04:02:38;;;;;;;31.92;14.02;;;;;;;;;;4945362;28;20390;-61
2021/06/12 04:05:04;;;;;;;30.35;14.07;;;;;;;;;;4945710;28;20062;-61
2021/06/12 04:07:32;;;;;;;29.65;13.57;;;;;;;;;;4945584;28;20030;-61
2021/06/12 04:10:00;;;;;;;26.73;13.02;;;;;;;;;;4946496;28;20185;-62
2021/06/12 04:12:26;;;;;;;26.05;11.65;;;;;;;;;;4946648;28;20111;-60
2021/06/12 04:14:54;;;;;;;27.33;13.30;;;;;;;;;;4962279;28;20034;-60
2021/06/12 04:17:21;;;;;;;25.90;13.27;;;;;;;;;;4947372;28;20026;-61
2021/06/12 04:19:46;;;;;;;23.73;12.73;;;;;;;;;;4944776;28;20041;-62
2021/06/12 04:22:12;;;;;;;25.08;13.13;;;;;;;;;;4946772;28;20027;-61
2021/06/12 04:24:37;;;;;;;22.90;11.25;;;;;;;;;;4961331;28;20035;-62
2021/06/12 04:27:03;;;;;;;21.30;11.10;;;;;;;;;;4947630;28;20125;-61
2021/06/12 04:29:33;;;;;;;25.40;10.93;;;;;;;;;;4948039;28;20034;-60
2021/06/12 04:32:04;;;;;;;23.83;10.85;;;;;;;;;;4964613;28;20062;-61
2021/06/12 04:34:34;;;;;;;22.92;10.80;;;;;;;;;;4947400;28;20138;-60
2021/06/12 04:37:02;;;;;;;25.25;11.43;;;;;;;;;;4931294;28;20122;-61
2021/06/12 04:39:27;;;;;;;22.40;10.52;;;;;;;;;;4931200;28;20324;-61
2021/06/12 04:41:53;;;;;;;26.10;10.93;;;;;;;;;;4931462;28;20687;-60
2021/06/12 04:44:18;;;;;;;18.10;9.45;;;;;;;;;;4932254;28;20538;-60
2021/06/12 04:46:46;;;;;;;21.55;9.00;;;;;;;;;;4945948;28;20039;-60
2021/06/12 04:49:14;;;;;;;21.35;9.43;;;;;;;;;;4932287;28;20538;-62
2021/06/12 04:51:42;;;;;;;17.92;8.35;;;;;;;;;;4962773;28;20059;-62
2021/06/12 04:54:10;;;;;;;17.55;8.27;;;;;;;;;;4946739;28;20594;-61
2021/06/12 04:56:42;;;;;;;17.08;8.50;;;;;;;;;;4944343;28;20118;-62
2021/06/12 04:59:08;;;;;;;15.52;8.15;;;;;;;;;;4931010;28;20578;-61
2021/06/12 05:01:37;;;;;;;14.40;7.53;;;;;;;;;;4961145;28;20040;-60
2021/06/12 05:04:02;;;;;;;16.52;7.97;;;;;;;;;;4945473;28;20046;-62
2021/06/12 05:06:28;;;;;;;15.10;7.85;;;;;;;;;;4931434;28;20027;-61
2021/06/12 05:08:53;;;;;;;16.58;7.80;;;;;;;;;;4930915;28;20415;-62
2021/06/12 05:11:24;;;;;;;15.52;7.47;;;;;;;;;;4961668;28;20046;-62
2021/06/12 05:13:51;;;;;;;19.25;8.40;;;;;;;;;;4945366;28;20138;-61
2021/06/12 05:16:19;;;;;;;13.60;7.70;;;;;;;;;;4927938;28;20047;-61
2021/06/12 05:18:45;;;;;;;13.35;7.95;;;;;;;;;;4930818;28;20059;-61
2021/06/12 05:21:13;;;;;;;16.48;7.93;;;;;;;;;;4961785;28;20035;-63
2021/06/12 05:23:41;;;;;;;14.43;7.13;;;;;;;;;;4943282;28;20027;-61
2021/06/12 05:26:11;;;;;;;16.95;7.00;;;;;;;;;;4946170;28;20066;-63
2021/06/12 05:28:36;;;;;;;13.15;6.38;;;;;;;;;;4930890;28;20039;-62
2021/06/12 05:31:04;;;;;;;13.07;6.95;;;;;;;;;;4932029;29;20813;-62
2021/06/12 05:33:30;;;;;;;12.10;6.78;;;;;;;;;;4938350;28;20073;-62
2021/06/12 05:35:56;;;;;;;12.18;7.32;;;;;;;;;;4949315;28;20022;-62
2021/06/12 05:38:22;;;;;;;14.80;6.70;;;;;;;;;;4946614;28;20019;-61
2021/06/12 05:40:48;;;;;;;10.90;6.10;;;;;;;;;;4948772;28;20109;-61
2021/06/12 05:43:16;;;;;;;13.85;6.10;;;;;;;;;;4946632;28;20035;-62
2021/06/12 05:45:44;;;;;;;10.65;5.65;;;;;;;;;;4949957;28;20037;-60
2021/06/12 05:48:11;;;;;;;11.70;5.85;;;;;;;;;;4949150;28;22160;-63
2021/06/12 05:50:42;;;;;;;13.13;5.85;;;;;;;;;;4948115;28;20039;-62
2021/06/12 05:53:10;;;;;;;9.90;5.28;;;;;;;;;;4962737;28;20030;-62
2021/06/12 05:55:38;;;;;;;10.50;5.53;;;;;;;;;;4945572;28;20702;-61
2021/06/12 05:58:08;;;;;;;10.18;4.90;;;;;;;;;;4964340;28;20030;-62
2021/06/12 06:00:34;;;;;;;8.45;4.65;;;;;;;;;;4951930;28;20494;-61
2021/06/12 06:03:00;;;;;;;7.35;4.10;;;;;;;;;;4964113;28;20034;-62
2021/06/12 06:05:26;;;;;;;12.35;4.50;;;;;;;;;;4950049;28;20501;-62
2021/06/12 06:07:51;;;;;;;6.40;3.63;;;;;;;;;;4949747;28;20047;-60
2021/06/12 06:10:19;;;;;;;9.88;3.42;;;;;;;;;;4932867;28;20046;-62
2021/06/12 06:12:48;;;;;;;5.47;2.95;;;;;;;;;;4946947;28;20035;-61
2021/06/12 06:15:16;;;;;;;5.43;2.25;;;;;;;;;;4939394;28;20043;-60
2021/06/12 06:17:44;;;;;;;10.38;2.33;;;;;;;;;;4941964;28;20113;-62
2021/06/12 06:20:11;;;;;;;5.55;2.00;;;;;;;;;;4940114;28;20030;-59
2021/06/12 06:22:37;;;;;;;6.97;2.13;;;;;;;;;;4941335;28;20034;-59
2021/06/12 06:25:07;;;;;;;7.75;2.72;;;;;;;;;;4941343;28;20115;-59
2021/06/12 06:27:35;;;;;;;4.20;2.15;;;;;;;;;;4954522;28;20452;-60
2021/06/12 06:30:01;;;;;;;3.13;2.25;;;;;;;;;;4948524;28;20199;-61
2021/06/12 06:32:29;;;;;;;8.48;2.55;;;;;;;;;;4943328;28;20039;-60
2021/06/12 06:34:55;;;;;;;10.27;2.30;;;;;;;;;;4939725;28;20506;-60
2021/06/12 06:37:21;;;;;;;5.38;2.40;;;;;;;;;;4937491;28;20143;-60
2021/06/12 06:39:46;;;;;;;4.80;1.70;;;;;;;;;;4952451;28;20125;-60
2021/06/12 06:42:14;;;;;;;6.72;2.75;;;;;;;;;;4938337;28;21035;-61
2021/06/12 06:44:42;;;;;;;7.28;2.05;;;;;;;;;;4953528;28;20035;-60
2021/06/12 06:47:07;;;;;;;4.63;1.90;;;;;;;;;;4923897;28;20661;-61
2021/06/12 06:49:37;;;;;;;7.65;2.03;;;;;;;;;;4938725;28;20097;-60
2021/06/12 06:52:10;;;;;;;5.50;1.73;;;;;;;;;;4936022;28;20723;-60
2021/06/12 06:54:35;;;;;;;7.13;1.30;;;;;;;;;;4937623;28;20042;-61
2021/06/12 06:57:04;;;;;;;7.93;1.27;;;;;;;;;;4938725;28;20105;-60
2021/06/12 06:59:30;;;;;;;6.53;1.60;;;;;;;;;;4951566;28;20045;-60
2021/06/12 07:01:55;;;;;;;8.32;1.92;;;;;;;;;;4939948;28;20034;-58
2021/06/12 07:04:22;;;;;;;7.90;2.15;;;;;;;;;;4937263;28;20506;-59
2021/06/12 07:06:47;;;;;;;5.00;1.60;;;;;;;;;;4953567;28;20043;-60
2021/06/12 07:09:12;;;;;;;4.13;1.25;;;;;;;;;;4937405;28;20030;-60
2021/06/12 07:11:43;;;;;;;4.55;1.23;;;;;;;;;;4948465;28;20074;-60
2021/06/12 07:14:11;;;;;;;5.38;1.40;;;;;;;;;;4941262;28;20051;-59
2021/06/12 07:16:38;;;;;;;3.70;1.20;;;;;;;;;;4936569;28;20042;-60
2021/06/12 07:19:06;;;;;;;2.85;1.23;;;;;;;;;;4941920;28;20041;-60
2021/06/12 07:21:32;;;;;;;4.82;1.10;;;;;;;;;;4923041;28;20087;-62
2021/06/12 07:24:02;;;;;;;8.85;1.55;;;;;;;;;;4952134;28;20031;-60
2021/06/12 07:26:28;;;;;;;7.18;1.95;;;;;;;;;;4938581;28;20112;-61
2021/06/12 07:28:56;;;;;;;1.92;1.00;;;;;;;;;;4920949;28;20031;-61
2021/06/12 07:31:26;;;;;;;3.15;1.27;;;;;;;;;;4937190;28;20084;-61
2021/06/12 07:33:53;;;;;;;2.58;1.15;;;;;;;;;;4952668;28;20054;-61
2021/06/12 07:36:21;;;;;;;3.15;1.05;;;;;;;;;;4938356;28;20038;-61
2021/06/12 07:38:46;;;;;;;5.13;1.20;;;;;;;;;;4935158;28;20070;-60
2021/06/12 07:41:15;;;;;;;4.10;1.10;;;;;;;;;;4939521;28;20031;-62
2021/06/12 07:43:43;;;;;;;5.00;1.50;;;;;;;;;;4941620;28;20066;-59
2021/06/12 07:46:11;;;;;;;8.00;1.50;;;;;;;;;;4957149;28;20556;-60
2021/06/12 07:48:41;;;;;;;4.97;1.48;;;;;;;;;;4921772;28;20129;-59
2021/06/12 07:51:09;;;;;;;3.83;1.38;;;;;;;;;;4923974;28;20137;-60
2021/06/12 07:53:36;;;;;;;4.40;1.15;;;;;;;;;;4944451;28;20986;-59
2021/06/12 07:56:05;;;;;;;3.13;1.10;;;;;;;;;;4941600;28;21972;-60
2021/06/12 07:58:31;;;;;;;2.80;1.08;;;;;;;;;;4936129;28;20043;-61
2021/06/12 08:00:58;;;;;;;1.02;0.70;;;;;;;;;;4939778;28;20122;-61
2021/06/12 08:03:28;;;;;;;4.47;1.48;;;;;;;;;;4942426;28;20047;-59
2021/06/12 08:05:56;;;;;;;3.88;0.95;;;;;;;;;;4938760;28;21411;-61
2021/06/12 08:08:24;;;;;;;2.78;0.70;;;;;;;;;;4942241;28;20050;-60
2021/06/12 08:10:49;;;;;;;2.22;1.08;;;;;;;;;;4961864;28;20034;-60
2021/06/12 08:13:17;;;;;;;6.10;1.23;;;;;;;;;;4940859;28;20035;-59
2021/06/12 08:15:46;;;;;;;5.05;0.90;;;;;;;;;;4939410;28;20041;-59
2021/06/12 08:18:11;;;;;;;1.88;0.70;;;;;;;;;;4939022;28;20038;-61
2021/06/12 08:20:37;;;;;;;1.65;0.90;;;;;;;;;;4946340;28;20738;-60
2021/06/12 08:23:03;;;;;;;2.78;0.90;;;;;;;;;;4950800;28;20206;-59
2021/06/12 08:25:28;;;;;;;1.73;0.63;;;;;;;;;;4949705;28;20078;-60
2021/06/12 08:28:02;;;;;;;7.43;1.25;;;;;;;;;;4942369;28;20039;-61
2021/06/12 08:30:29;;;;;;;2.42;0.82;;;;;;;;;;4925077;28;20109;-61
2021/06/12 08:32:54;;;;;;;2.72;0.50;;;;;;;;;;4939600;28;20128;-61
2021/06/12 08:35:20;;;;;;;6.32;0.88;;;;;;;;;;4943759;28;20142;-61
2021/06/12 08:37:48;;;;;;;5.13;0.80;;;;;;;;;;4938223;28;20582;-61
2021/06/12 08:40:16;;;;;;;2.17;0.70;;;;;;;;;;4955448;28;20038;-61
2021/06/12 08:42:44;;;;;;;2.67;0.70;;;;;;;;;;4940336;28;20035;-60
2021/06/12 08:45:12;;;;;;;1.20;0.63;;;;;;;;;;4940457;28;20038;-60
2021/06/12 08:47:38;;;;;;;3.53;0.60;;;;;;;;;;4922901;28;20113;-59
2021/06/12 08:50:09;;;;;;;2.08;0.60;;;;;;;;;;4945616;28;21803;-60
2021/06/12 08:52:36;;;;;;;5.38;0.98;;;;;;;;;;4951490;28;20041;-59
2021/06/12 08:55:03;;;;;;;3.15;0.63;;;;;;;;;;4950578;28;20044;-60
2021/06/12 08:57:31;;;;;;;3.35;1.00;;;;;;;;;;4941923;28;20087;-62
2021/06/12 08:59:59;;;;;;;3.25;0.88;;;;;;;;;;4939587;28;20820;-61
2021/06/12 09:02:24;;;;;;;5.40;1.30;;;;;;;;;;4922346;28;20077;-61
2021/06/12 09:04:51;;;;;;;2.47;0.75;;;;;;;;;;4955238;28;20386;-61
2021/06/12 09:07:20;;;;;;;2.78;0.60;;;;;;;;;;4943061;28;20031;-60
2021/06/12 09:09:48;;;;;;;3.85;0.80;;;;;;;;;;4939905;28;20055;-61
2021/06/12 09:12:18;;;;;;;4.68;0.90;;;;;;;;;;4940288;28;21148;-60
2021/06/12 09:15:03;;;;;;;5.80;0.77;;;;;;;;;;4927636;28;20034;-61
2021/06/12 09:17:42;;;;;;;1.58;0.50;;;;;;;;;;4923082;28;20062;-60
2021/06/12 09:20:09;;;;;;;2.92;0.70;;;;;;;;;;4943931;28;20046;-60
2021/06/12 09:22:35;;;;;;;1.25;0.88;;;;;;;;;;4957196;28;20022;-60
2021/06/12 09:25:00;;;;;;;2.97;0.65;;;;;;;;;;4954795;28;20046;-61
2021/06/12 09:27:26;;;;;;;2.20;0.60;;;;;;;;;;4941272;28;20125;-59
2021/06/12 09:29:53;;;;;;;1.98;0.65;;;;;;;;;;4933383;28;21435;-61
2021/06/12 09:32:21;;;;;;;4.70;0.65;;;;;;;;;;4936843;28;20133;-59
2021/06/12 09:34:50;;;;;;;4.65;0.82;;;;;;;;;;4947001;28;20137;-60
2021/06/12 09:37:24;;;;;;;3.90;0.65;;;;;;;;;;4925758;28;20180;-59
2021/06/12 09:43:26;;;;;;;1.77;0.70;;;;;;;;;;4938327;28;20118;-59
2021/06/12 09:45:53;;;;;;;1.80;0.60;;;;;;;;;;4940071;28;20038;-59
2021/06/12 09:48:25;;;;;;;3.60;0.75;;;;;;;;;;4940824;28;20531;-60
2021/06/12 09:51:08;;;;;;;3.38;0.70;;;;;;;;;;4945057;28;20058;-58
2021/06/12 09:53:46;;;;;;;2.85;0.85;;;;;;;;;;4937792;28;20035;-59
2021/06/12 09:56:14;;;;;;;4.43;0.98;;;;;;;;;;4945764;28;20042;-59
2021/06/12 09:58:39;;;;;;;2.28;0.85;;;;;;;;;;4941226;28;21766;-60
2021/06/12 10:01:08;;;;;;;5.38;1.08;;;;;;;;;;4941015;28;20039;-60
2021/06/12 10:03:34;;;;;;;2.25;0.85;;;;;;;;;;4939265;28;20031;-59
2021/06/12 10:06:13;;;;;;;3.15;1.00;;;;;;;;;;4939948;28;22010;-60
2021/06/12 10:08:42;;;;;;;2.72;1.00;;;;;;;;;;4959058;28;20038;-60
2021/06/12 10:11:09;;;;;;;4.88;1.00;;;;;;;;;;4938380;28;20173;-59
2021/06/12 10:13:38;;;;;;;7.05;0.95;;;;;;;;;;4951767;28;20555;-60
2021/06/12 10:16:09;;;;;;;3.55;1.38;;;;;;;;;;4939887;28;20039;-61
2021/06/12 10:18:34;;;;;;;4.65;0.93;;;;;;;;;;4936359;28;20054;-58
2021/06/12 10:21:03;;;;;;;5.65;0.82;;;;;;;;;;4959864;28;20121;-59
2021/06/12 10:23:28;;;;;;;3.28;0.88;;;;;;;;;;4940676;28;20023;-59
2021/06/12 10:25:53;;;;;;;4.47;0.98;;;;;;;;;;4939495;28;20053;-59
2021/06/12 10:28:22;;;;;;;3.38;0.98;;;;;;;;;;4950721;28;21239;-61
2021/06/12 10:30:48;;;;;;;4.68;0.73;;;;;;;;;;4940748;28;20038;-60
2021/06/12 10:33:22;;;;;;;3.38;0.90;;;;;;;;;;4932681;28;20146;-61
2021/06/12 10:35:50;;;;;;;9.85;1.08;;;;;;;;;;4928618;28;20093;-59
2021/06/12 10:38:20;;;;;;;8.55;1.20;;;;;;;;;;4920282;28;20043;-60
2021/06/12 10:40:48;;;;;;;5.75;1.38;;;;;;;;;;4926872;28;20038;-59
2021/06/12 10:43:18;;;;;;;5.22;1.20;;;;;;;;;;4929067;28;20023;-59
2021/06/12 10:45:48;;;;;;;7.13;1.10;;;;;;;;;;4920893;28;22467;-60
2021/06/12 10:48:46;;;;;;;4.00;0.70;;;;;;;;;;4938640;28;22524;-60
2021/06/12 10:51:27;;;;;;;2.47;0.90;;;;;;;;;;4924038;28;20388;-59
2021/06/12 10:54:11;;;;;;;7.18;0.88;;;;;;;;;;4953713;28;20035;-61
2021/06/12 10:56:40;;;;;;;9.65;1.08;;;;;;;;;;4921400;28;20038;-61
2021/06/12 10:59:09;;;;;;;5.93;0.68;;;;;;;;;;4919388;28;20218;-59
2021/06/12 11:01:35;;;;;;;3.83;0.80;;;;;;;;;;4929920;28;20055;-62
2021/06/12 11:04:08;;;;;;;2.05;0.80;;;;;;;;;;4916165;28;20031;-62
2021/06/12 11:09:14;;;;;;;1.77;0.68;;;;;;;;;;4915404;28;20083;-60
2021/06/12 11:11:40;;;;;;;3.38;0.60;;;;;;;;;;4952855;28;20150;-58
2021/06/12 11:14:23;;;;;;;4.50;0.63;;;;;;;;;;4917041;28;20154;-60
2021/06/12 11:19:33;;;;;;;0.80;0.43;;;;;;;;;;4916567;28;20031;-61
2021/06/12 11:22:17;;;;;;;1.45;0.30;;;;;;;;;;4921260;28;20024;-60
2021/06/12 11:24:44;;;;;;;0.70;0.45;;;;;;;;;;4926506;28;20147;-62
2021/06/12 11:27:21;;;;;;;2.70;0.57;;;;;;;;;;4926890;28;20134;-61
2021/06/12 11:30:08;;;;;;;4.72;0.73;;;;;;;;;;4929502;28;20043;-60
2021/06/12 11:32:35;;;;;;;0.57;0.45;;;;;;;;;;4942554;28;20057;-61
2021/06/12 11:35:04;;;;;;;3.42;0.98;;;;;;;;;;4942373;28;20058;-59
2021/06/12 11:37:30;;;;;;;7.43;2.67;;;;;;;;;;4929380;28;20110;-59
2021/06/12 11:40:02;;;;;;;1.40;0.70;;;;;;;;;;4927986;28;20089;-58
2021/06/12 11:42:41;;;;;;;6.53;3.47;;;;;;;;;;4945338;28;20020;-59
2021/06/12 11:45:14;;;;;;;5.63;0.70;;;;;;;;;;4928780;28;20038;-60
2021/06/12 11:47:40;;;;;;;1.08;0.60;;;;;;;;;;4942468;28;20058;-61
2021/06/12 11:50:08;;;;;;;1.85;0.57;;;;;;;;;;4959033;28;20142;-59
2021/06/12 11:52:37;;;;;;;2.03;0.45;;;;;;;;;;4928540;28;20031;-59
2021/06/12 11:55:10;;;;;;;2.78;0.73;;;;;;;;;;4959660;28;20043;-59
2021/06/12 11:57:45;;;;;;;5.25;0.70;;;;;;;;;;4926145;28;20375;-60
2021/06/12 12:00:30;;;;;;;7.38;1.20;;;;;;;;;;4943228;28;20050;-59
2021/06/12 12:03:04;;;;;;;3.88;0.82;;;;;;;;;;4924767;28;20054;-59
2021/06/12 12:05:32;;;;;;;9.18;1.10;;;;;;;;;;4956988;28;20039;-59
2021/06/12 12:08:00;;;;;;;4.57;1.20;;;;;;;;;;4926154;28;20038;-59
2021/06/12 12:10:31;;;;;;;3.35;0.88;;;;;;;;;;4926596;29;20174;-59
2021/06/12 12:13:00;;;;;;;9.40;1.13;;;;;;;;;;4927495;28;20059;-59
2021/06/12 12:15:44;;;;;;;4.25;0.88;;;;;;;;;;4941674;28;20054;-60
2021/06/12 12:18:11;;;;;;;1.80;0.70;;;;;;;;;;4926275;28;20046;-59
2021/06/12 12:20:45;;;;;;;6.57;1.10;;;;;;;;;;4958508;28;20047;-58
2021/06/12 12:23:25;;;;;;;4.95;0.85;;;;;;;;;;4940907;28;20166;-60
2021/06/12 12:26:03;;;;;;;4.80;0.90;;;;;;;;;;4926451;28;20035;-62
2021/06/12 12:28:28;;;;;;;5.03;1.45;;;;;;;;;;4940364;28;20121;-58
2021/06/12 12:31:04;;;;;;;6.55;0.98;;;;;;;;;;4927452;28;20036;-59
2021/06/12 12:33:30;;;;;;;1.48;0.80;;;;;;;;;;4931413;28;20098;-59
2021/06/12 12:36:01;;;;;;;6.80;1.27;;;;;;;;;;4958646;28;20038;-59
2021/06/12 12:38:27;;;;;;;2.65;1.10;;;;;;;;;;4943872;28;20055;-59
2021/06/12 12:40:58;;;;;;;6.22;0.98;;;;;;;;;;4946222;28;20031;-60
2021/06/12 12:43:29;;;;;;;8.48;1.35;;;;;;;;;;4926786;28;20043;-59
2021/06/12 12:45:57;;;;;;;6.20;1.38;;;;;;;;;;4945339;28;20165;-59
2021/06/12 12:48:23;;;;;;;3.30;0.85;;;;;;;;;;4957353;28;20043;-59
2021/06/12 12:50:49;;;;;;;5.97;0.95;;;;;;;;;;4961096;28;20093;-58
2021/06/12 12:53:19;;;;;;;7.65;1.40;;;;;;;;;;4946621;28;20031;-59
2021/06/12 12:55:58;;;;;;;2.85;1.10;;;;;;;;;;4949246;28;20054;-58
2021/06/12 12:58:25;;;;;;;6.00;1.08;;;;;;;;;;4933384;28;20030;-59
2021/06/12 13:00:50;;;;;;;4.45;1.17;;;;;;;;;;4949076;28;20027;-57
2021/06/12 13:03:17;;;;;;;4.63;1.25;;;;;;;;;;4947081;28;20042;-59
2021/06/12 13:05:45;;;;;;;5.30;1.15;;;;;;;;;;4946445;28;20042;-61
2021/06/12 13:08:12;;;;;;;6.57;1.10;;;;;;;;;;4930295;28;20031;-60
2021/06/12 13:10:39;;;;;;;5.93;1.50;;;;;;;;;;4932403;28;20066;-60
2021/06/12 13:13:05;;;;;;;2.75;1.20;;;;;;;;;;4947863;28;20042;-60
2021/06/12 13:15:31;;;;;;;7.30;2.08;;;;;;;;;;4949542;28;20030;-58
2021/06/12 13:18:08;;;;;;;20.35;10.52;;;;;;;;;;4949048;28;20644;-59
2021/06/12 13:20:36;;;;;;;4.70;2.70;;;;;;;;;;4945314;28;20061;-57
2021/06/12 13:23:03;;;;;;;6.88;2.83;;;;;;;;;;4951006;28;20023;-57
2021/06/12 13:25:31;;;;;;;5.15;1.20;;;;;;;;;;4946355;28;20434;-58
2021/06/12 13:28:03;;;;;;;5.40;1.40;;;;;;;;;;4949173;28;21117;-58
2021/06/12 13:30:33;;;;;;;16.95;2.55;;;;;;;;;;4950760;28;20035;-58
2021/06/12 13:33:00;;;;;;;8.70;1.42;;;;;;;;;;4962813;28;20035;-61
2021/06/12 13:35:29;;;;;;;2.75;0.80;;;;;;;;;;4947778;28;20891;-60
2021/06/12 13:38:04;;;;;;;5.40;1.10;;;;;;;;;;4931950;28;20073;-60
2021/06/12 13:40:29;;;;;;;4.93;1.13;;;;;;;;;;4964026;28;20043;-59
2021/06/12 13:42:57;;;;;;;3.85;1.30;;;;;;;;;;4948757;28;20027;-59
2021/06/12 13:45:22;;;;;;;2.70;1.00;;;;;;;;;;4946354;28;20031;-60
2021/06/12 13:47:51;;;;;;;10.32;1.42;;;;;;;;;;4946768;28;20069;-58
2021/06/12 13:50:18;;;;;;;6.97;1.50;;;;;;;;;;4947308;28;20031;-58
2021/06/12 13:52:44;;;;;;;4.45;1.27;;;;;;;;;;4949661;28;20407;-58
2021/06/12 13:55:13;;;;;;;6.28;1.20;;;;;;;;;;4929640;28;20043;-58
2021/06/12 13:57:43;;;;;;;12.23;1.88;;;;;;;;;;4945340;28;20132;-59
2021/06/12 14:00:12;;;;;;;7.03;1.75;;;;;;;;;;4950095;28;20672;-58
2021/06/12 14:02:37;;;;;;;3.83;1.70;;;;;;;;;;4947555;28;20301;-59
2021/06/12 14:05:04;;;;;;;4.15;1.65;;;;;;;;;;4946439;28;20019;-58
2021/06/12 14:07:29;;;;;;;8.80;1.75;;;;;;;;;;4945424;28;20051;-59
2021/06/12 14:09:55;;;;;;;6.28;2.10;;;;;;;;;;4963061;28;20210;-58
2021/06/12 14:12:24;;;;;;;9.23;2.60;;;;;;;;;;4947678;28;20038;-58
2021/06/12 14:14:52;;;;;;;6.15;1.70;;;;;;;;;;4947831;28;20038;-57
2021/06/12 14:17:17;;;;;;;5.25;1.17;;;;;;;;;;4947906;28;20035;-58
2021/06/12 14:19:45;;;;;;;8.70;2.38;;;;;;;;;;4963256;28;20671;-59
2021/06/12 14:22:13;;;;;;;4.13;1.38;;;;;;;;;;4963235;28;20118;-59
2021/06/12 14:24:39;;;;;;;6.18;1.30;;;;;;;;;;4937493;28;20030;-60
2021/06/12 14:27:05;;;;;;;4.88;1.90;;;;;;;;;;4948054;28;20069;-59
2021/06/12 14:29:36;;;;;;;6.93;1.48;;;;;;;;;;4930891;28;20038;-60
2021/06/12 14:32:03;;;;;;;5.40;1.70;;;;;;;;;;4948675;28;20038;-59
2021/06/12 14:34:30;;;;;;;3.80;1.70;;;;;;;;;;4961596;28;20065;-57
2021/06/12 14:36:56;;;;;;;10.45;2.85;;;;;;;;;;4948631;28;20154;-58
2021/06/12 14:39:22;;;;;;;9.40;2.13;;;;;;;;;;4946160;28;20041;-58
2021/06/12 14:41:54;;;;;;;11.43;2.80;;;;;;;;;;4912829;28;20113;-56
2021/06/12 14:44:22;;;;;;;9.60;1.85;;;;;;;;;;4945265;28;20039;-58
2021/06/12 14:46:51;;;;;;;4.15;1.83;;;;;;;;;;4960886;28;20031;-59
2021/06/12 14:49:16;;;;;;;5.82;2.10;;;;;;;;;;4963160;28;20038;-57
2021/06/12 14:51:42;;;;;;;5.30;1.58;;;;;;;;;;4947807;28;20048;-58